Time;durP1;ratioP1;P1;durP2;ratioP2;P2;SDS_P1;SDS_P2;PMS_P1;PMS_P2;Temp;Humidity;BMP_temperature;BMP_pressure;BME280_temperature;BME280_humidity;BME280_pressure;Samples;Min_cycle;Max_cycle;Signal;HPM_P1;HPM_P2
2024/01/28 00:02:13;;;;;;;27.80;11.27;;;;;;;;;;5037156;28;20439;-79
2024/01/28 00:04:39;;;;;;;25.52;10.57;;;;;;;;;;5027509;28;20056;-79
2024/01/28 00:07:05;;;;;;;27.90;10.63;;;;;;;;;;5029915;28;20045;-79
2024/01/28 00:09:31;;;;;;;30.33;11.40;;;;;;;;;;5033536;28;20045;-79
2024/01/28 00:11:57;;;;;;;28.02;11.20;;;;;;;;;;5022855;28;20041;-79
2024/01/28 00:14:23;;;;;;;26.40;11.40;;;;;;;;;;5027552;28;20049;-79
2024/01/28 00:16:49;;;;;;;29.35;12.23;;;;;;;;;;5022706;28;20077;-79
2024/01/28 00:19:15;;;;;;;31.40;12.18;;;;;;;;;;5025532;28;20052;-78
2024/01/28 00:21:41;;;;;;;26.50;11.85;;;;;;;;;;5032440;28;20049;-79
2024/01/28 00:24:08;;;;;;;32.55;12.65;;;;;;;;;;5029607;28;20449;-79
2024/01/28 00:26:40;;;;;;;27.35;12.45;;;;;;;;;;5030917;28;20041;-79
2024/01/28 00:29:06;;;;;;;26.38;12.52;;;;;;;;;;5030007;28;20045;-79
2024/01/28 00:31:32;;;;;;;26.88;11.48;;;;;;;;;;5030041;28;20461;-78
2024/01/28 00:33:58;;;;;;;27.52;12.40;;;;;;;;;;5029188;28;20076;-79
2024/01/28 00:36:24;;;;;;;25.88;12.23;;;;;;;;;;5029639;28;20052;-78
2024/01/28 00:38:51;;;;;;;25.65;12.00;;;;;;;;;;5037597;28;20041;-78
2024/01/28 00:41:21;;;;;;;28.38;12.98;;;;;;;;;;5038337;28;20384;-78
2024/01/28 00:43:47;;;;;;;29.45;13.32;;;;;;;;;;5024700;28;20100;-78
2024/01/28 00:46:14;;;;;;;32.58;13.13;;;;;;;;;;5011245;28;20530;-79
2024/01/28 00:48:40;;;;;;;32.30;13.55;;;;;;;;;;5039952;28;20438;-78
2024/01/28 00:51:06;;;;;;;28.60;13.00;;;;;;;;;;5031083;28;20376;-79
2024/01/28 00:53:32;;;;;;;34.20;12.30;;;;;;;;;;5040193;28;20411;-79
2024/01/28 00:55:58;;;;;;;27.45;12.35;;;;;;;;;;5040334;28;20411;-79
2024/01/28 00:58:24;;;;;;;31.30;13.07;;;;;;;;;;5040840;28;20046;-79
2024/01/28 01:00:50;;;;;;;24.58;13.18;;;;;;;;;;5032699;28;20048;-78
2024/01/28 01:03:16;;;;;;;30.75;13.55;;;;;;;;;;5039539;28;20069;-78
2024/01/28 01:05:42;;;;;;;32.22;12.57;;;;;;;;;;5039331;28;20127;-79
2024/01/28 01:08:09;;;;;;;27.95;13.63;;;;;;;;;;5039360;28;20047;-78
2024/01/28 01:10:35;;;;;;;27.63;12.68;;;;;;;;;;5031970;28;20041;-79
2024/01/28 01:13:01;;;;;;;26.75;12.05;;;;;;;;;;5037674;28;20052;-79
2024/01/28 01:15:28;;;;;;;30.80;12.88;;;;;;;;;;5028149;28;20034;-78
2024/01/28 01:17:54;;;;;;;25.60;13.13;;;;;;;;;;5038196;28;20489;-79
2024/01/28 01:20:20;;;;;;;29.30;13.10;;;;;;;;;;5038427;28;20402;-79
2024/01/28 01:22:46;;;;;;;37.33;13.35;;;;;;;;;;5041901;28;20045;-78
2024/01/28 01:25:13;;;;;;;33.10;13.05;;;;;;;;;;5027044;28;20049;-78
2024/01/28 01:27:40;;;;;;;31.42;13.52;;;;;;;;;;5037584;28;20479;-78
2024/01/28 01:30:07;;;;;;;31.60;13.80;;;;;;;;;;5039333;28;20037;-79
2024/01/28 01:32:35;;;;;;;30.25;13.82;;;;;;;;;;5018690;28;20045;-79
2024/01/28 01:35:02;;;;;;;33.97;13.60;;;;;;;;;;5038001;28;20050;-78
2024/01/28 01:37:28;;;;;;;31.23;13.48;;;;;;;;;;5032844;28;20049;-78
2024/01/28 01:39:54;;;;;;;28.77;13.27;;;;;;;;;;5038552;28;20049;-79
2024/01/28 01:42:20;;;;;;;29.38;13.25;;;;;;;;;;5038404;28;20053;-78
2024/01/28 01:44:47;;;;;;;27.10;13.27;;;;;;;;;;5036751;28;20056;-79
2024/01/28 01:47:13;;;;;;;29.45;12.63;;;;;;;;;;5025065;28;20041;-78
2024/01/28 01:49:39;;;;;;;30.23;12.68;;;;;;;;;;5037838;28;20045;-78
2024/01/28 01:52:06;;;;;;;30.40;13.23;;;;;;;;;;5034247;28;20446;-78
2024/01/28 01:54:32;;;;;;;29.52;12.60;;;;;;;;;;4998961;28;20399;-78
2024/01/28 01:56:59;;;;;;;27.08;13.23;;;;;;;;;;5035259;28;20458;-78
2024/01/28 01:59:25;;;;;;;29.23;13.15;;;;;;;;;;5036214;28;20050;-79
2024/01/28 02:01:54;;;;;;;31.80;13.68;;;;;;;;;;5017595;28;20056;-79
2024/01/28 02:04:20;;;;;;;28.10;12.30;;;;;;;;;;5029080;28;20042;-79
2024/01/28 02:06:47;;;;;;;29.63;13.27;;;;;;;;;;5036259;28;20068;-78
2024/01/28 02:09:13;;;;;;;26.25;12.20;;;;;;;;;;5035886;28;20071;-79
2024/01/28 02:11:39;;;;;;;30.98;14.10;;;;;;;;;;5027106;28;20041;-78
2024/01/28 02:14:05;;;;;;;26.88;12.55;;;;;;;;;;5031314;28;20049;-78
2024/01/28 02:16:31;;;;;;;27.83;12.27;;;;;;;;;;5033940;28;20475;-79
2024/01/28 02:18:57;;;;;;;29.15;13.05;;;;;;;;;;5036161;28;20422;-78
2024/01/28 02:21:23;;;;;;;31.30;13.30;;;;;;;;;;5033608;28;20499;-78
2024/01/28 02:23:49;;;;;;;30.10;12.90;;;;;;;;;;5036061;28;20061;-79
2024/01/28 02:26:16;;;;;;;31.00;12.30;;;;;;;;;;5031749;28;20495;-78
2024/01/28 02:28:42;;;;;;;28.63;12.88;;;;;;;;;;5028847;28;20053;-78
2024/01/28 02:31:08;;;;;;;36.70;13.05;;;;;;;;;;5007130;28;20057;-78
2024/01/28 02:33:34;;;;;;;30.73;13.10;;;;;;;;;;5028677;28;20050;-78
2024/01/28 02:36:00;;;;;;;31.20;13.25;;;;;;;;;;5029946;28;20049;-78
2024/01/28 02:38:26;;;;;;;33.85;13.60;;;;;;;;;;5029134;28;20136;-78
2024/01/28 02:40:52;;;;;;;32.30;13.00;;;;;;;;;;5037051;28;20729;-78
2024/01/28 02:43:19;;;;;;;25.83;13.00;;;;;;;;;;5035948;28;20103;-78
2024/01/28 02:45:45;;;;;;;34.10;12.75;;;;;;;;;;5035838;28;20038;-78
2024/01/28 02:48:11;;;;;;;31.75;13.43;;;;;;;;;;5036406;28;20095;-78
2024/01/28 02:50:37;;;;;;;29.38;13.45;;;;;;;;;;5020858;28;20491;-78
2024/01/28 02:53:04;;;;;;;29.55;13.45;;;;;;;;;;5023506;28;20373;-79
2024/01/28 02:55:30;;;;;;;30.70;14.20;;;;;;;;;;5036195;28;20052;-78
2024/01/28 02:57:56;;;;;;;27.50;13.95;;;;;;;;;;5033560;28;20037;-78
2024/01/28 03:00:22;;;;;;;29.35;13.75;;;;;;;;;;5029881;28;20049;-78
2024/01/28 03:02:48;;;;;;;28.35;13.23;;;;;;;;;;5035621;28;20037;-78
2024/01/28 03:05:14;;;;;;;28.80;13.65;;;;;;;;;;5035547;28;20045;-78
2024/01/28 03:07:40;;;;;;;26.83;13.48;;;;;;;;;;5030356;28;20045;-79
2024/01/28 03:10:08;;;;;;;34.40;15.00;;;;;;;;;;5028910;28;20072;-78
2024/01/28 03:12:34;;;;;;;32.25;15.20;;;;;;;;;;5034039;28;20046;-78
2024/01/28 03:15:00;;;;;;;32.28;13.65;;;;;;;;;;5034600;28;20053;-79
2024/01/28 03:17:26;;;;;;;30.63;14.25;;;;;;;;;;5035796;28;20466;-79
2024/01/28 03:19:52;;;;;;;26.38;13.48;;;;;;;;;;5024724;28;20042;-78
2024/01/28 03:22:19;;;;;;;30.77;13.27;;;;;;;;;;5028484;28;20053;-78
2024/01/28 03:24:47;;;;;;;29.63;14.15;;;;;;;;;;5036047;28;20052;-79
2024/01/28 03:27:13;;;;;;;30.60;13.57;;;;;;;;;;5031169;28;20041;-78
2024/01/28 03:29:39;;;;;;;32.25;13.52;;;;;;;;;;5036326;28;20048;-78
2024/01/28 03:32:05;;;;;;;25.45;13.10;;;;;;;;;;5029473;28;20519;-78
2024/01/28 03:34:32;;;;;;;28.48;14.30;;;;;;;;;;5037743;28;20048;-79
2024/01/28 03:36:58;;;;;;;31.13;13.75;;;;;;;;;;5036658;28;20403;-79
2024/01/28 03:39:24;;;;;;;30.67;13.75;;;;;;;;;;5024189;28;20104;-78
2024/01/28 03:41:50;;;;;;;30.05;12.60;;;;;;;;;;5035461;28;20049;-79
2024/01/28 03:44:22;;;;;;;31.65;13.55;;;;;;;;;;5028776;28;20132;-78
2024/01/28 03:46:48;;;;;;;28.23;13.45;;;;;;;;;;5020228;28;20050;-78
2024/01/28 03:49:14;;;;;;;30.13;12.38;;;;;;;;;;5030700;28;20492;-78
2024/01/28 03:51:41;;;;;;;26.67;12.40;;;;;;;;;;5034722;28;20045;-79
2024/01/28 03:54:07;;;;;;;26.25;13.10;;;;;;;;;;5037398;28;20049;-78
2024/01/28 03:56:34;;;;;;;23.75;12.10;;;;;;;;;;5015022;28;20492;-79
2024/01/28 03:59:00;;;;;;;32.30;12.85;;;;;;;;;;5027079;28;20045;-78
2024/01/28 04:01:32;;;;;;;31.58;12.63;;;;;;;;;;5036592;28;20041;-79
2024/01/28 04:03:59;;;;;;;25.23;12.30;;;;;;;;;;5034058;28;20033;-79
2024/01/28 04:06:25;;;;;;;27.15;12.95;;;;;;;;;;5035118;28;20419;-79
2024/01/28 04:08:54;;;;;;;32.88;12.60;;;;;;;;;;5033273;28;20065;-79
2024/01/28 04:11:23;;;;;;;27.15;12.70;;;;;;;;;;5017852;28;20036;-78
2024/01/28 04:13:49;;;;;;;25.42;12.32;;;;;;;;;;5034860;28;20055;-78
2024/01/28 04:16:15;;;;;;;25.08;12.18;;;;;;;;;;5026669;28;20033;-79
2024/01/28 04:18:41;;;;;;;28.95;12.25;;;;;;;;;;5035212;28;20433;-78
2024/01/28 04:21:07;;;;;;;24.58;12.23;;;;;;;;;;5034420;28;20096;-78
2024/01/28 04:23:33;;;;;;;23.20;11.93;;;;;;;;;;5036992;28;20504;-79
2024/01/28 04:25:59;;;;;;;22.25;12.02;;;;;;;;;;5037476;28;20605;-78
2024/01/28 04:28:25;;;;;;;28.15;12.23;;;;;;;;;;5031669;28;20451;-78
2024/01/28 04:30:52;;;;;;;23.95;11.90;;;;;;;;;;5020226;28;20419;-79
2024/01/28 04:33:18;;;;;;;28.13;12.48;;;;;;;;;;5033303;28;20060;-79
2024/01/28 04:35:44;;;;;;;24.88;12.82;;;;;;;;;;5018915;28;20408;-79
2024/01/28 04:38:11;;;;;;;30.92;12.60;;;;;;;;;;5021559;28;20041;-78
2024/01/28 04:40:37;;;;;;;25.02;12.32;;;;;;;;;;5016177;28;20046;-79
2024/01/28 04:43:03;;;;;;;26.48;13.57;;;;;;;;;;5031929;28;20049;-79
2024/01/28 04:45:29;;;;;;;27.30;12.55;;;;;;;;;;5035418;28;20045;-78
2024/01/28 04:47:55;;;;;;;29.02;12.90;;;;;;;;;;5034697;28;20048;-79
2024/01/28 04:50:21;;;;;;;33.83;13.38;;;;;;;;;;5019185;28;20046;-78
2024/01/28 04:52:47;;;;;;;27.13;12.70;;;;;;;;;;5028697;28;20065;-78
2024/01/28 04:55:13;;;;;;;30.70;13.02;;;;;;;;;;5035661;28;20053;-79
2024/01/28 04:57:39;;;;;;;26.35;12.02;;;;;;;;;;5036047;28;20135;-79
2024/01/28 05:00:10;;;;;;;29.17;12.63;;;;;;;;;;5036085;28;20045;-78
2024/01/28 05:02:36;;;;;;;30.07;12.90;;;;;;;;;;5035599;28;20050;-78
2024/01/28 05:05:02;;;;;;;28.38;12.80;;;;;;;;;;5026611;28;20568;-79
2024/01/28 05:07:29;;;;;;;31.02;13.05;;;;;;;;;;5035382;28;20408;-78
2024/01/28 05:09:55;;;;;;;29.23;11.90;;;;;;;;;;4998666;28;20058;-78
2024/01/28 05:12:21;;;;;;;25.92;12.35;;;;;;;;;;5013046;28;20064;-78
2024/01/28 05:14:48;;;;;;;31.80;12.50;;;;;;;;;;5026853;28;20053;-78
2024/01/28 05:17:14;;;;;;;27.38;12.25;;;;;;;;;;5027445;28;20593;-78
2024/01/28 05:19:40;;;;;;;26.63;13.48;;;;;;;;;;5028188;28;20480;-79
2024/01/28 05:22:06;;;;;;;27.88;12.43;;;;;;;;;;5035139;28;20050;-78
2024/01/28 05:24:32;;;;;;;28.48;13.18;;;;;;;;;;5034513;28;20068;-78
2024/01/28 05:26:58;;;;;;;27.50;12.57;;;;;;;;;;5027244;28;20164;-78
2024/01/28 05:29:25;;;;;;;27.13;12.07;;;;;;;;;;5025837;28;20045;-78
2024/01/28 05:31:52;;;;;;;25.63;12.05;;;;;;;;;;5016266;28;20116;-78
2024/01/28 05:34:18;;;;;;;25.88;13.15;;;;;;;;;;5033732;28;20041;-78
2024/01/28 05:36:53;;;;;;;29.02;12.98;;;;;;;;;;5030279;28;20045;-78
2024/01/28 05:39:19;;;;;;;30.88;13.20;;;;;;;;;;5033851;28;20053;-79
2024/01/28 05:41:45;;;;;;;23.02;12.70;;;;;;;;;;5023729;28;20053;-78
2024/01/28 05:44:11;;;;;;;30.27;12.77;;;;;;;;;;5015653;28;20107;-79
2024/01/28 05:46:37;;;;;;;29.67;12.43;;;;;;;;;;5026083;28;20042;-79
2024/01/28 05:49:03;;;;;;;25.02;12.43;;;;;;;;;;5035107;28;20049;-78
2024/01/28 05:51:32;;;;;;;25.80;12.13;;;;;;;;;;5033156;28;20388;-79
2024/01/28 05:53:59;;;;;;;26.83;12.70;;;;;;;;;;5034385;28;20075;-78
2024/01/28 05:56:25;;;;;;;26.90;13.15;;;;;;;;;;5030015;28;20044;-78
2024/01/28 05:58:51;;;;;;;27.00;13.93;;;;;;;;;;5034101;28;20045;-78
2024/01/28 06:01:17;;;;;;;26.52;12.95;;;;;;;;;;5032261;28;20049;-79
2024/01/28 06:03:43;;;;;;;30.77;12.80;;;;;;;;;;5015109;28;20488;-78
2024/01/28 06:06:09;;;;;;;26.60;12.50;;;;;;;;;;5016658;28;20049;-78
2024/01/28 06:08:35;;;;;;;30.35;12.93;;;;;;;;;;5024596;28;20105;-78
2024/01/28 06:11:01;;;;;;;27.73;12.48;;;;;;;;;;5026556;28;20042;-78
2024/01/28 06:13:27;;;;;;;28.83;12.60;;;;;;;;;;5016200;28;20061;-78
2024/01/28 06:15:53;;;;;;;31.42;12.98;;;;;;;;;;5014605;28;20050;-78
2024/01/28 06:18:20;;;;;;;25.25;12.35;;;;;;;;;;5033620;28;20049;-78
2024/01/28 06:20:47;;;;;;;25.95;12.40;;;;;;;;;;5028841;28;20064;-78
2024/01/28 06:23:13;;;;;;;27.67;12.80;;;;;;;;;;5031706;28;20502;-78
2024/01/28 06:25:39;;;;;;;24.90;11.75;;;;;;;;;;5031923;28;20408;-78
2024/01/28 06:28:05;;;;;;;23.70;11.68;;;;;;;;;;5027650;28;20129;-78
2024/01/28 06:30:35;;;;;;;23.05;12.05;;;;;;;;;;5017781;28;20961;-78
2024/01/28 06:33:02;;;;;;;25.10;11.77;;;;;;;;;;5026539;28;20209;-78
2024/01/28 06:35:28;;;;;;;26.33;11.02;;;;;;;;;;5034971;28;20052;-79
2024/01/28 06:37:54;;;;;;;28.67;11.35;;;;;;;;;;5021397;28;20127;-79
2024/01/28 06:40:21;;;;;;;21.85;10.45;;;;;;;;;;5003699;28;20053;-78
2024/01/28 06:42:47;;;;;;;28.40;11.45;;;;;;;;;;5024989;28;20041;-79
2024/01/28 06:45:13;;;;;;;21.70;10.43;;;;;;;;;;5020437;28;20196;-78
2024/01/28 06:47:39;;;;;;;22.67;10.40;;;;;;;;;;5004515;28;20053;-78
2024/01/28 06:50:05;;;;;;;23.15;10.63;;;;;;;;;;5018939;28;20135;-78
2024/01/28 06:52:31;;;;;;;25.77;10.93;;;;;;;;;;5021869;28;20045;-78
2024/01/28 06:54:58;;;;;;;21.27;10.00;;;;;;;;;;5021154;28;20045;-78
2024/01/28 06:57:24;;;;;;;23.90;10.30;;;;;;;;;;5022284;28;20037;-78
2024/01/28 06:59:50;;;;;;;23.63;10.55;;;;;;;;;;5021735;28;20051;-78
2024/01/28 07:02:16;;;;;;;26.08;10.38;;;;;;;;;;5020354;28;20511;-78
2024/01/28 07:04:42;;;;;;;22.55;10.27;;;;;;;;;;5028612;28;20085;-78
2024/01/28 07:07:08;;;;;;;21.98;9.65;;;;;;;;;;5032368;28;20507;-78
2024/01/28 07:09:34;;;;;;;21.30;9.63;;;;;;;;;;5032656;28;20567;-77
2024/01/28 07:12:01;;;;;;;28.13;8.73;;;;;;;;;;5028829;28;20053;-78
2024/01/28 07:14:27;;;;;;;22.30;9.23;;;;;;;;;;5030133;28;20073;-78
2024/01/28 07:16:53;;;;;;;24.58;9.43;;;;;;;;;;5031691;28;20187;-79
2024/01/28 07:19:19;;;;;;;17.95;8.77;;;;;;;;;;5031606;28;20045;-78
2024/01/28 07:21:45;;;;;;;15.98;8.20;;;;;;;;;;5013204;28;20037;-79
2024/01/28 07:24:11;;;;;;;19.85;8.50;;;;;;;;;;5024822;28;20053;-78
2024/01/28 07:26:37;;;;;;;22.50;8.52;;;;;;;;;;5023388;28;20120;-78
2024/01/28 07:29:03;;;;;;;19.25;8.45;;;;;;;;;;5028316;28;20042;-78
2024/01/28 07:31:29;;;;;;;18.95;8.25;;;;;;;;;;5027470;28;20049;-78
2024/01/28 07:33:55;;;;;;;19.05;7.82;;;;;;;;;;5029369;28;20045;-79
2024/01/28 07:36:21;;;;;;;19.67;8.60;;;;;;;;;;5032497;28;20092;-78
2024/01/28 07:38:47;;;;;;;21.88;8.70;;;;;;;;;;5032896;28;20068;-78
2024/01/28 07:41:16;;;;;;;16.90;8.40;;;;;;;;;;5009856;28;20045;-78
2024/01/28 07:43:43;;;;;;;20.77;8.57;;;;;;;;;;5029871;28;20086;-79
2024/01/28 07:46:09;;;;;;;22.33;8.70;;;;;;;;;;5011608;28;20414;-78
2024/01/28 07:48:36;;;;;;;17.80;7.82;;;;;;;;;;5040649;28;20049;-78
2024/01/28 07:51:02;;;;;;;22.08;8.73;;;;;;;;;;5032626;28;20108;-79
2024/01/28 07:53:29;;;;;;;19.02;8.30;;;;;;;;;;5028690;28;20126;-78
2024/01/28 07:55:55;;;;;;;21.10;8.38;;;;;;;;;;5033737;28;20061;-78
2024/01/28 07:58:21;;;;;;;20.25;7.88;;;;;;;;;;5038141;28;20120;-79
2024/01/28 08:00:47;;;;;;;17.67;7.88;;;;;;;;;;5036793;28;20079;-78
2024/01/28 08:03:13;;;;;;;18.00;8.07;;;;;;;;;;5035969;28;20049;-78
2024/01/28 08:05:40;;;;;;;19.23;8.13;;;;;;;;;;5036347;28;20046;-79
2024/01/28 08:08:06;;;;;;;17.50;8.05;;;;;;;;;;5036936;28;20045;-78
2024/01/28 08:10:33;;;;;;;15.57;7.72;;;;;;;;;;5031374;28;20064;-79
2024/01/28 08:12:59;;;;;;;18.95;7.38;;;;;;;;;;5018514;28;20467;-79
2024/01/28 08:15:25;;;;;;;16.25;7.65;;;;;;;;;;5020762;28;20056;-78
2024/01/28 08:17:51;;;;;;;21.27;7.80;;;;;;;;;;5022911;28;20050;-78
2024/01/28 08:20:17;;;;;;;17.90;7.25;;;;;;;;;;5019789;28;20052;-79
2024/01/28 08:22:44;;;;;;;18.55;7.72;;;;;;;;;;5017864;28;20049;-79
2024/01/28 08:25:13;;;;;;;15.82;7.35;;;;;;;;;;5037147;28;20317;-78
2024/01/28 08:27:39;;;;;;;17.60;7.57;;;;;;;;;;5031354;28;20041;-79
2024/01/28 08:30:07;;;;;;;15.75;6.68;;;;;;;;;;5036211;28;20053;-79
2024/01/28 08:32:33;;;;;;;15.45;7.13;;;;;;;;;;5037590;28;20128;-79
2024/01/28 08:35:00;;;;;;;17.58;7.10;;;;;;;;;;5030375;28;20395;-78
2024/01/28 08:37:26;;;;;;;14.95;6.53;;;;;;;;;;5018861;28;20129;-78
2024/01/28 08:39:52;;;;;;;16.73;7.18;;;;;;;;;;5019100;28;20065;-78
2024/01/28 08:42:19;;;;;;;17.10;7.55;;;;;;;;;;5019754;28;20042;-79
2024/01/28 08:44:46;;;;;;;17.40;6.60;;;;;;;;;;5034224;28;20053;-79
2024/01/28 08:47:12;;;;;;;16.58;6.20;;;;;;;;;;5038210;28;20103;-78
2024/01/28 08:49:38;;;;;;;19.63;6.53;;;;;;;;;;5038071;28;20494;-78
2024/01/28 08:52:04;;;;;;;15.43;6.57;;;;;;;;;;5028237;28;20058;-79
2024/01/28 08:54:30;;;;;;;15.25;6.15;;;;;;;;;;5018209;28;20466;-78
2024/01/28 08:56:59;;;;;;;15.18;5.93;;;;;;;;;;5027149;28;20384;-78
2024/01/28 08:59:25;;;;;;;15.35;6.50;;;;;;;;;;5037586;28;20076;-78
2024/01/28 09:01:52;;;;;;;18.10;6.57;;;;;;;;;;5029914;28;20046;-78
2024/01/28 09:04:18;;;;;;;14.50;6.53;;;;;;;;;;5036318;28;20045;-78
2024/01/28 09:06:44;;;;;;;17.15;6.60;;;;;;;;;;5038730;28;20045;-79
2024/01/28 09:09:11;;;;;;;14.40;6.20;;;;;;;;;;5040826;28;20057;-78
2024/01/28 09:11:37;;;;;;;15.38;6.13;;;;;;;;;;5033650;28;20045;-78
2024/01/28 09:14:03;;;;;;;16.80;6.45;;;;;;;;;;5017768;28;20050;-78
2024/01/28 09:16:29;;;;;;;15.57;6.47;;;;;;;;;;5021592;28;20061;-78
2024/01/28 09:18:56;;;;;;;17.30;6.55;;;;;;;;;;5037572;28;20099;-78
2024/01/28 09:21:22;;;;;;;14.63;6.20;;;;;;;;;;5035957;28;20428;-78
2024/01/28 09:23:48;;;;;;;12.20;6.00;;;;;;;;;;5024742;28;20064;-79
2024/01/28 09:26:14;;;;;;;12.70;5.57;;;;;;;;;;5038223;28;20137;-78
2024/01/28 09:28:40;;;;;;;12.00;5.53;;;;;;;;;;5040421;28;20045;-79
2024/01/28 09:31:09;;;;;;;15.23;5.90;;;;;;;;;;5038509;28;20494;-79
2024/01/28 09:33:35;;;;;;;13.20;6.30;;;;;;;;;;5038294;28;20073;-78
2024/01/28 09:36:01;;;;;;;12.77;5.20;;;;;;;;;;5038585;28;20045;-78
2024/01/28 09:38:27;;;;;;;11.85;5.30;;;;;;;;;;5037526;28;20053;-79
2024/01/28 09:40:54;;;;;;;11.63;5.07;;;;;;;;;;5037258;28;20049;-78
2024/01/28 09:43:20;;;;;;;13.30;5.32;;;;;;;;;;5036201;28;20455;-79
2024/01/28 09:45:46;;;;;;;9.90;4.85;;;;;;;;;;5036169;28;20057;-79
2024/01/28 09:48:12;;;;;;;12.43;5.07;;;;;;;;;;5034912;28;20050;-79
2024/01/28 09:50:40;;;;;;;15.20;5.00;;;;;;;;;;5041814;28;20086;-78
2024/01/28 09:53:06;;;;;;;13.65;4.85;;;;;;;;;;5049849;28;20044;-79
2024/01/28 09:55:33;;;;;;;14.25;5.07;;;;;;;;;;5061593;28;20059;-79
2024/01/28 09:57:59;;;;;;;11.65;4.80;;;;;;;;;;5061229;28;20049;-80
2024/01/28 10:00:26;;;;;;;15.02;5.00;;;;;;;;;;5042423;28;20049;-79
2024/01/28 10:02:52;;;;;;;13.32;5.05;;;;;;;;;;5037506;28;20038;-79
2024/01/28 10:05:18;;;;;;;13.63;4.68;;;;;;;;;;5021259;28;20061;-80
2024/01/28 10:07:47;;;;;;;9.68;4.70;;;;;;;;;;5027063;28;20160;-79
2024/01/28 10:10:13;;;;;;;10.00;4.65;;;;;;;;;;5039803;28;20606;-79
2024/01/28 10:12:39;;;;;;;11.30;4.60;;;;;;;;;;5040346;28;20061;-80
2024/01/28 10:15:15;;;;;;;13.18;4.70;;;;;;;;;;5042024;28;20071;-79
2024/01/28 10:17:46;;;;;;;10.90;4.55;;;;;;;;;;5023341;28;20049;-80
2024/01/28 10:20:13;;;;;;;12.13;4.33;;;;;;;;;;5036739;28;20499;-79
2024/01/28 10:22:39;;;;;;;11.02;4.60;;;;;;;;;;5041665;28;20295;-80
2024/01/28 10:25:07;;;;;;;12.98;4.50;;;;;;;;;;5040214;28;20042;-80
2024/01/28 10:27:33;;;;;;;10.65;4.53;;;;;;;;;;5040814;28;20044;-80
2024/01/28 10:29:59;;;;;;;10.73;4.20;;;;;;;;;;5041831;28;20041;-80
2024/01/28 10:32:25;;;;;;;12.60;4.38;;;;;;;;;;5041900;28;20059;-80
2024/01/28 10:34:52;;;;;;;10.70;4.20;;;;;;;;;;5040908;28;20041;-80
2024/01/28 10:37:18;;;;;;;10.45;4.05;;;;;;;;;;5042365;28;20196;-80
2024/01/28 10:39:45;;;;;;;12.43;4.13;;;;;;;;;;5041665;28;20046;-79
2024/01/28 10:42:13;;;;;;;12.27;3.75;;;;;;;;;;5041615;28;20053;-80
2024/01/28 10:44:44;;;;;;;11.73;4.18;;;;;;;;;;5042156;28;20092;-81
2024/01/28 10:47:13;;;;;;;10.82;4.10;;;;;;;;;;5041648;28;20049;-80
2024/01/28 10:49:40;;;;;;;11.35;5.00;;;;;;;;;;5041581;28;20045;-80
2024/01/28 10:52:08;;;;;;;9.35;4.50;;;;;;;;;;5041792;28;20377;-79
2024/01/28 10:54:34;;;;;;;12.65;4.53;;;;;;;;;;5041296;28;20053;-80
2024/01/28 10:57:00;;;;;;;12.32;4.15;;;;;;;;;;5040958;28;20049;-80
2024/01/28 10:59:27;;;;;;;11.60;3.83;;;;;;;;;;5041989;28;20056;-80
2024/01/28 11:01:53;;;;;;;10.77;3.60;;;;;;;;;;5038718;28;20618;-80
2024/01/28 11:04:19;;;;;;;11.75;3.65;;;;;;;;;;5038834;28;20042;-80
2024/01/28 11:06:46;;;;;;;7.88;3.35;;;;;;;;;;5040869;28;20148;-80
2024/01/28 11:09:12;;;;;;;9.30;3.53;;;;;;;;;;5040905;28;20069;-80
2024/01/28 11:11:38;;;;;;;13.88;4.20;;;;;;;;;;5041251;28;20045;-80
2024/01/28 11:14:08;;;;;;;9.85;3.28;;;;;;;;;;5038611;28;20061;-79
2024/01/28 11:16:34;;;;;;;6.53;2.90;;;;;;;;;;5041367;28;20157;-80
2024/01/28 11:19:05;;;;;;;7.70;3.22;;;;;;;;;;5040946;28;20380;-80
2024/01/28 11:21:35;;;;;;;11.73;3.45;;;;;;;;;;5040060;28;20056;-80
2024/01/28 11:24:08;;;;;;;9.93;3.55;;;;;;;;;;5022393;28;20045;-80
2024/01/28 11:26:38;;;;;;;11.43;3.38;;;;;;;;;;5022891;28;20060;-80
2024/01/28 11:29:08;;;;;;;9.20;3.25;;;;;;;;;;5040078;28;20077;-80
2024/01/28 11:31:36;;;;;;;10.97;3.27;;;;;;;;;;5043946;28;20049;-80
2024/01/28 11:34:14;;;;;;;10.70;3.65;;;;;;;;;;5047627;28;20284;-80
2024/01/28 11:36:43;;;;;;;12.90;3.80;;;;;;;;;;5047522;28;20093;-81
2024/01/28 11:39:12;;;;;;;10.75;3.40;;;;;;;;;;5043158;28;20066;-80
2024/01/28 11:41:38;;;;;;;11.40;3.10;;;;;;;;;;5027667;28;20057;-80
2024/01/28 11:44:07;;;;;;;9.02;3.13;;;;;;;;;;5027498;28;20121;-79
2024/01/28 11:46:34;;;;;;;8.77;3.10;;;;;;;;;;5042123;28;20056;-80
2024/01/28 11:49:00;;;;;;;7.82;2.72;;;;;;;;;;5046722;28;20053;-80
2024/01/28 11:51:33;;;;;;;7.68;2.75;;;;;;;;;;5039706;28;20057;-80
2024/01/28 11:54:00;;;;;;;9.68;2.80;;;;;;;;;;5027737;28;20119;-80
2024/01/28 11:56:29;;;;;;;12.63;3.22;;;;;;;;;;5027545;28;20133;-80
2024/01/28 11:58:58;;;;;;;7.97;3.13;;;;;;;;;;5046930;28;20147;-80
2024/01/28 12:01:25;;;;;;;10.43;3.00;;;;;;;;;;5047273;28;20052;-80
2024/01/28 12:03:53;;;;;;;9.63;3.28;;;;;;;;;;5047631;28;20105;-80
2024/01/28 12:06:19;;;;;;;9.48;2.88;;;;;;;;;;5046949;28;20457;-80
2024/01/28 12:08:47;;;;;;;7.82;2.88;;;;;;;;;;5045303;28;20112;-80
2024/01/28 12:11:15;;;;;;;9.25;3.00;;;;;;;;;;5044074;28;20052;-80
2024/01/28 12:13:43;;;;;;;8.27;2.70;;;;;;;;;;5055365;28;20045;-80
2024/01/28 12:16:10;;;;;;;6.57;2.47;;;;;;;;;;5056827;28;20060;-80
2024/01/28 12:18:39;;;;;;;9.55;2.55;;;;;;;;;;5053485;28;20050;-80
2024/01/28 12:21:19;;;;;;;14.50;2.92;;;;;;;;;;5059460;28;20044;-80
2024/01/28 12:23:59;;;;;;;8.50;2.67;;;;;;;;;;5053801;28;20049;-81
2024/01/28 12:26:25;;;;;;;5.97;2.35;;;;;;;;;;5049558;28;20493;-80
2024/01/28 12:28:52;;;;;;;7.20;2.50;;;;;;;;;;5056019;28;20355;-80
2024/01/28 12:31:19;;;;;;;8.05;2.40;;;;;;;;;;5055321;28;20041;-80
2024/01/28 12:33:46;;;;;;;8.98;3.10;;;;;;;;;;5047365;28;20052;-80
2024/01/28 12:36:12;;;;;;;8.07;2.55;;;;;;;;;;5068257;28;20045;-80
2024/01/28 12:38:38;;;;;;;8.77;2.90;;;;;;;;;;5052181;28;20052;-80
2024/01/28 12:41:05;;;;;;;9.40;2.78;;;;;;;;;;5051894;28;20407;-80
2024/01/28 12:43:31;;;;;;;7.32;2.58;;;;;;;;;;5054324;28;20127;-80
2024/01/28 12:45:57;;;;;;;7.20;2.58;;;;;;;;;;5043945;28;20056;-80
2024/01/28 12:48:23;;;;;;;9.20;2.70;;;;;;;;;;5032927;28;20053;-79
2024/01/28 12:50:50;;;;;;;9.20;2.88;;;;;;;;;;5026071;28;20041;-80
2024/01/28 12:53:17;;;;;;;5.45;2.28;;;;;;;;;;5025979;28;20045;-80
2024/01/28 12:55:43;;;;;;;9.85;2.60;;;;;;;;;;5036617;28;20050;-80
2024/01/28 12:58:10;;;;;;;8.10;2.42;;;;;;;;;;5023229;28;20384;-81
2024/01/28 13:00:36;;;;;;;6.85;2.63;;;;;;;;;;5023184;28;20053;-80
2024/01/28 13:03:02;;;;;;;8.57;2.60;;;;;;;;;;5023110;28;20042;-80
2024/01/28 13:05:29;;;;;;;7.30;2.70;;;;;;;;;;5028956;28;20045;-80
2024/01/28 13:07:55;;;;;;;7.35;2.50;;;;;;;;;;5023329;28;20052;-79
2024/01/28 13:10:21;;;;;;;7.78;2.50;;;;;;;;;;5040692;28;20057;-81
2024/01/28 13:12:48;;;;;;;8.05;2.67;;;;;;;;;;5043345;28;20129;-80
2024/01/28 13:15:14;;;;;;;6.88;2.35;;;;;;;;;;5043447;28;20111;-79
2024/01/28 13:17:41;;;;;;;7.07;3.25;;;;;;;;;;5042850;28;20058;-80
2024/01/28 13:20:08;;;;;;;7.68;3.40;;;;;;;;;;5042750;28;20050;-80
2024/01/28 13:22:35;;;;;;;10.27;7.65;;;;;;;;;;5039899;28;20050;-80
2024/01/28 13:25:01;;;;;;;12.43;6.78;;;;;;;;;;5040359;28;20041;-80
2024/01/28 13:27:27;;;;;;;11.98;6.03;;;;;;;;;;5042700;28;20063;-79
2024/01/28 13:29:54;;;;;;;9.35;3.30;;;;;;;;;;5042141;28;20037;-80
2024/01/28 13:32:20;;;;;;;6.72;2.35;;;;;;;;;;5042735;28;20050;-80
2024/01/28 13:34:46;;;;;;;7.13;2.55;;;;;;;;;;5039148;28;20136;-80
2024/01/28 13:37:16;;;;;;;8.20;2.67;;;;;;;;;;5024981;28;20084;-81
2024/01/28 13:39:43;;;;;;;8.00;2.53;;;;;;;;;;5042748;28;20410;-79
2024/01/28 13:42:09;;;;;;;7.13;2.67;;;;;;;;;;5042100;28;20056;-80
2024/01/28 13:44:35;;;;;;;8.48;2.60;;;;;;;;;;5040936;28;20144;-81
2024/01/28 13:47:03;;;;;;;6.90;2.60;;;;;;;;;;5042024;28;20063;-80
2024/01/28 13:49:29;;;;;;;8.82;2.42;;;;;;;;;;5042750;28;20076;-79
2024/01/28 13:51:55;;;;;;;7.15;2.53;;;;;;;;;;5042210;28;20434;-80
2024/01/28 13:54:21;;;;;;;9.07;3.05;;;;;;;;;;5040999;28;20042;-80
2024/01/28 13:56:47;;;;;;;7.90;2.50;;;;;;;;;;5040475;28;20088;-80
2024/01/28 13:59:14;;;;;;;7.00;2.63;;;;;;;;;;5039662;28;20037;-81
2024/01/28 14:01:40;;;;;;;7.47;2.55;;;;;;;;;;5046942;28;20056;-80
2024/01/28 14:04:06;;;;;;;6.85;2.85;;;;;;;;;;5041392;28;20048;-80
2024/01/28 14:06:32;;;;;;;13.70;9.10;;;;;;;;;;5028489;28;20060;-80
2024/01/28 14:08:58;;;;;;;14.93;10.98;;;;;;;;;;5041368;28;20061;-80
2024/01/28 14:11:25;;;;;;;8.98;4.35;;;;;;;;;;5042898;28;20104;-80
2024/01/28 14:13:51;;;;;;;13.48;7.00;;;;;;;;;;5042133;28;20045;-81
2024/01/28 14:16:17;;;;;;;9.25;4.07;;;;;;;;;;5040379;28;20049;-81
2024/01/28 14:18:44;;;;;;;11.10;5.90;;;;;;;;;;5041914;28;20096;-80
2024/01/28 14:21:10;;;;;;;9.18;2.70;;;;;;;;;;5040634;28;20045;-80
2024/01/28 14:23:36;;;;;;;8.07;2.97;;;;;;;;;;5042273;28;20049;-80